sensor_id;sensor_type;location;lat;lon;timestamp;pressure;altitude;pressure_sealevel;temperature;humidity
64141;BME280;50436;50.618;7.932;2024-02-23T00:01:45;94017.59;;;3.97;100.00
64141;BME280;50436;50.618;7.932;2024-02-23T00:04:31;94028.72;;;3.99;100.00
64141;BME280;50436;50.618;7.932;2024-02-23T00:07:17;94031.63;;;3.98;100.00
64141;BME280;50436;50.618;7.932;2024-02-23T00:10:03;94033.47;;;3.92;100.00
64141;BME280;50436;50.618;7.932;2024-02-23T00:12:49;94032.41;;;3.78;100.00
64141;BME280;50436;50.618;7.932;2024-02-23T00:15:34;94034.25;;;3.77;100.00
64141;BME280;50436;50.618;7.932;2024-02-23T00:18:20;94051.47;;;3.70;100.00
64141;BME280;50436;50.618;7.932;2024-02-23T00:21:06;94057.28;;;3.72;100.00
64141;BME280;50436;50.618;7.932;2024-02-23T00:23:52;94071.56;;;3.76;100.00
64141;BME280;50436;50.618;7.932;2024-02-23T00:26:38;94069.72;;;3.76;100.00
64141;BME280;50436;50.618;7.932;2024-02-23T00:29:24;94072.09;;;3.88;100.00
64141;BME280;50436;50.618;7.932;2024-02-23T00:32:09;94076.84;;;3.96;100.00
64141;BME280;50436;50.618;7.932;2024-02-23T00:34:57;94074.22;;;3.96;100.00
64141;BME280;50436;50.618;7.932;2024-02-23T00:37:42;94081.63;;;3.94;100.00
64141;BME280;50436;50.618;7.932;2024-02-23T00:40:28;94101.22;;;3.98;100.00
64141;BME280;50436;50.618;7.932;2024-02-23T00:43:14;94092.19;;;3.89;100.00
64141;BME280;50436;50.618;7.932;2024-02-23T00:46:00;94094.34;;;3.92;100.00
64141;BME280;50436;50.618;7.932;2024-02-23T00:48:46;94102.78;;;3.89;100.00
64141;BME280;50436;50.618;7.932;2024-02-23T00:51:32;94126.28;;;3.65;100.00
64141;BME280;50436;50.618;7.932;2024-02-23T00:54:18;94130.78;;;3.54;100.00
64141;BME280;50436;50.618;7.932;2024-02-23T00:57:04;94129.59;;;3.15;100.00
64141;BME280;50436;50.618;7.932;2024-02-23T00:59:50;94126.81;;;2.84;100.00
64141;BME280;50436;50.618;7.932;2024-02-23T01:02:37;94143.09;;;2.71;100.00
64141;BME280;50436;50.618;7.932;2024-02-23T01:05:22;94146.28;;;2.73;100.00
64141;BME280;50436;50.618;7.932;2024-02-23T01:08:08;94169.59;;;2.86;100.00
64141;BME280;50436;50.618;7.932;2024-02-23T01:10:54;94189.75;;;2.97;100.00
64141;BME280;50436;50.618;7.932;2024-02-23T01:13:40;94190.81;;;2.96;100.00
64141;BME280;50436;50.618;7.932;2024-02-23T01:16:26;94203.19;;;2.91;100.00
64141;BME280;50436;50.618;7.932;2024-02-23T01:19:12;94191.28;;;2.88;100.00
64141;BME280;50436;50.618;7.932;2024-02-23T01:21:58;94210.16;;;2.70;100.00
64141;BME280;50436;50.618;7.932;2024-02-23T01:24:47;94218.06;;;2.65;100.00
64141;BME280;50436;50.618;7.932;2024-02-23T01:27:33;94215.38;;;2.60;100.00
64141;BME280;50436;50.618;7.932;2024-02-23T01:30:19;94226.44;;;2.57;100.00
64141;BME280;50436;50.618;7.932;2024-02-23T01:33:04;94228.53;;;2.49;100.00
64141;BME280;50436;50.618;7.932;2024-02-23T01:35:50;94209.72;;;2.46;100.00
64141;BME280;50436;50.618;7.932;2024-02-23T01:38:36;94220.66;;;2.60;100.00
64141;BME280;50436;50.618;7.932;2024-02-23T01:41:22;94231.22;;;2.60;100.00
64141;BME280;50436;50.618;7.932;2024-02-23T01:44:08;94221.41;;;2.55;100.00
64141;BME280;50436;50.618;7.932;2024-02-23T01:46:54;94220.81;;;2.43;100.00
64141;BME280;50436;50.618;7.932;2024-02-23T01:49:40;94224.13;;;2.33;100.00
64141;BME280;50436;50.618;7.932;2024-02-23T01:52:26;94216.38;;;2.21;100.00
64141;BME280;50436;50.618;7.932;2024-02-23T01:55:12;94236.66;;;2.16;100.00
64141;BME280;50436;50.618;7.932;2024-02-23T01:57:59;94250.34;;;2.13;100.00
64141;BME280;50436;50.618;7.932;2024-02-23T02:00:45;94258.34;;;2.23;100.00
64141;BME280;50436;50.618;7.932;2024-02-23T02:03:32;94250.41;;;2.18;100.00
64141;BME280;50436;50.618;7.932;2024-02-23T02:06:18;94256.47;;;2.18;100.00
64141;BME280;50436;50.618;7.932;2024-02-23T02:09:04;94252.94;;;2.08;100.00
64141;BME280;50436;50.618;7.932;2024-02-23T02:11:51;94247.75;;;1.91;100.00
64141;BME280;50436;50.618;7.932;2024-02-23T02:14:39;94256.59;;;1.80;100.00
64141;BME280;50436;50.618;7.932;2024-02-23T02:17:24;94259.25;;;1.80;100.00
64141;BME280;50436;50.618;7.932;2024-02-23T02:20:14;94269.00;;;1.79;100.00
64141;BME280;50436;50.618;7.932;2024-02-23T02:22:59;94260.84;;;1.81;100.00
64141;BME280;50436;50.618;7.932;2024-02-23T02:25:58;94265.00;;;1.77;100.00
64141;BME280;50436;50.618;7.932;2024-02-23T02:28:44;94259.09;;;1.70;100.00
64141;BME280;50436;50.618;7.932;2024-02-23T02:31:30;94263.03;;;1.67;100.00
64141;BME280;50436;50.618;7.932;2024-02-23T02:34:22;94269.25;;;1.56;100.00
64141;BME280;50436;50.618;7.932;2024-02-23T02:37:10;94274.53;;;1.56;100.00
64141;BME280;50436;50.618;7.932;2024-02-23T02:39:56;94266.22;;;1.47;100.00
64141;BME280;50436;50.618;7.932;2024-02-23T02:42:42;94264.59;;;1.41;100.00
64141;BME280;50436;50.618;7.932;2024-02-23T02:45:28;94269.06;;;1.41;100.00
64141;BME280;50436;50.618;7.932;2024-02-23T02:48:13;94274.81;;;1.37;100.00
64141;BME280;50436;50.618;7.932;2024-02-23T02:50:59;94272.66;;;1.34;100.00
64141;BME280;50436;50.618;7.932;2024-02-23T02:53:47;94266.78;;;1.27;100.00
64141;BME280;50436;50.618;7.932;2024-02-23T02:56:33;94284.19;;;1.50;100.00
64141;BME280;50436;50.618;7.932;2024-02-23T02:59:20;94280.94;;;1.43;100.00
64141;BME280;50436;50.618;7.932;2024-02-23T03:02:06;94281.63;;;1.33;100.00
64141;BME280;50436;50.618;7.932;2024-02-23T03:04:51;94288.22;;;1.36;100.00
64141;BME280;50436;50.618;7.932;2024-02-23T03:07:39;94290.97;;;1.46;100.00
64141;BME280;50436;50.618;7.932;2024-02-23T03:10:25;94282.81;;;1.48;100.00
64141;BME280;50436;50.618;7.932;2024-02-23T03:13:11;94273.34;;;1.47;100.00
64141;BME280;50436;50.618;7.932;2024-02-23T03:16:00;94268.44;;;1.33;100.00
64141;BME280;50436;50.618;7.932;2024-02-23T03:18:46;94276.50;;;1.27;100.00
64141;BME280;50436;50.618;7.932;2024-02-23T03:21:32;94277.72;;;1.19;100.00
64141;BME280;50436;50.618;7.932;2024-02-23T03:24:18;94286.44;;;1.20;100.00
64141;BME280;50436;50.618;7.932;2024-02-23T03:27:04;94280.03;;;1.16;100.00
64141;BME280;50436;50.618;7.932;2024-02-23T03:29:50;94284.84;;;1.19;100.00
64141;BME280;50436;50.618;7.932;2024-02-23T03:32:35;94304.75;;;1.31;100.00
64141;BME280;50436;50.618;7.932;2024-02-23T03:35:22;94297.56;;;1.44;100.00
64141;BME280;50436;50.618;7.932;2024-02-23T03:38:08;94296.69;;;1.60;100.00
64141;BME280;50436;50.618;7.932;2024-02-23T03:40:54;94292.91;;;1.51;100.00
64141;BME280;50436;50.618;7.932;2024-02-23T03:43:40;94306.75;;;1.63;100.00
64141;BME280;50436;50.618;7.932;2024-02-23T03:46:26;94297.94;;;1.74;100.00
64141;BME280;50436;50.618;7.932;2024-02-23T03:49:11;94304.13;;;1.63;100.00
64141;BME280;50436;50.618;7.932;2024-02-23T03:51:57;94296.88;;;1.53;100.00
64141;BME280;50436;50.618;7.932;2024-02-23T03:54:43;94308.09;;;1.44;100.00
64141;BME280;50436;50.618;7.932;2024-02-23T03:57:29;94302.31;;;1.47;100.00
64141;BME280;50436;50.618;7.932;2024-02-23T04:00:15;94295.78;;;1.49;100.00
64141;BME280;50436;50.618;7.932;2024-02-23T04:03:01;94304.75;;;1.48;100.00
64141;BME280;50436;50.618;7.932;2024-02-23T04:05:47;94310.41;;;1.40;100.00
64141;BME280;50436;50.618;7.932;2024-02-23T04:08:32;94312.38;;;1.28;100.00
64141;BME280;50436;50.618;7.932;2024-02-23T04:11:18;94323.41;;;1.25;100.00
64141;BME280;50436;50.618;7.932;2024-02-23T04:14:04;94310.06;;;1.15;100.00
64141;BME280;50436;50.618;7.932;2024-02-23T04:16:53;94313.84;;;1.02;100.00
64141;BME280;50436;50.618;7.932;2024-02-23T04:19:42;94327.72;;;0.97;100.00
64141;BME280;50436;50.618;7.932;2024-02-23T04:22:28;94324.78;;;0.94;100.00
64141;BME280;50436;50.618;7.932;2024-02-23T04:25:14;94325.25;;;0.91;100.00
64141;BME280;50436;50.618;7.932;2024-02-23T04:28:00;94332.44;;;0.95;100.00
64141;BME280;50436;50.618;7.932;2024-02-23T04:30:46;94313.59;;;0.87;100.00
64141;BME280;50436;50.618;7.932;2024-02-23T04:33:32;94329.88;;;0.83;100.00
64141;BME280;50436;50.618;7.932;2024-02-23T04:36:21;94317.66;;;0.77;100.00
64141;BME280;50436;50.618;7.932;2024-02-23T04:39:07;94321.31;;;0.76;100.00
64141;BME280;50436;50.618;7.932;2024-02-23T04:41:53;94327.56;;;0.70;100.00
64141;BME280;50436;50.618;7.932;2024-02-23T04:44:43;94329.06;;;0.66;100.00
64141;BME280;50436;50.618;7.932;2024-02-23T04:47:29;94347.09;;;0.74;100.00
64141;BME280;50436;50.618;7.932;2024-02-23T04:50:15;94338.00;;;0.82;100.00
64141;BME280;50436;50.618;7.932;2024-02-23T04:53:01;94345.22;;;0.87;100.00
64141;BME280;50436;50.618;7.932;2024-02-23T04:55:48;94341.84;;;0.91;100.00
64141;BME280;50436;50.618;7.932;2024-02-23T04:58:33;94339.22;;;0.91;100.00
64141;BME280;50436;50.618;7.932;2024-02-23T05:01:19;94342.72;;;0.97;100.00
64141;BME280;50436;50.618;7.932;2024-02-23T05:04:05;94353.56;;;1.00;100.00
64141;BME280;50436;50.618;7.932;2024-02-23T05:06:51;94363.69;;;0.92;100.00
64141;BME280;50436;50.618;7.932;2024-02-23T05:09:37;94368.81;;;0.81;100.00
64141;BME280;50436;50.618;7.932;2024-02-23T05:12:23;94362.91;;;0.91;100.00
64141;BME280;50436;50.618;7.932;2024-02-23T05:15:09;94366.34;;;0.92;100.00
64141;BME280;50436;50.618;7.932;2024-02-23T05:17:55;94364.34;;;0.99;100.00
64141;BME280;50436;50.618;7.932;2024-02-23T05:20:41;94368.41;;;0.90;100.00
64141;BME280;50436;50.618;7.932;2024-02-23T05:23:27;94359.06;;;0.99;100.00
64141;BME280;50436;50.618;7.932;2024-02-23T05:26:13;94359.72;;;1.06;100.00
64141;BME280;50436;50.618;7.932;2024-02-23T05:28:58;94365.28;;;0.93;100.00
64141;BME280;50436;50.618;7.932;2024-02-23T05:31:53;94361.94;;;0.80;100.00
64141;BME280;50436;50.618;7.932;2024-02-23T05:34:39;94363.44;;;0.76;100.00
64141;BME280;50436;50.618;7.932;2024-02-23T05:37:25;94368.97;;;0.92;100.00
64141;BME280;50436;50.618;7.932;2024-02-23T05:40:12;94377.28;;;1.00;100.00
64141;BME280;50436;50.618;7.932;2024-02-23T05:42:58;94367.22;;;1.14;100.00
64141;BME280;50436;50.618;7.932;2024-02-23T05:45:44;94368.34;;;1.18;100.00
64141;BME280;50436;50.618;7.932;2024-02-23T05:48:31;94358.75;;;1.12;100.00
64141;BME280;50436;50.618;7.932;2024-02-23T05:51:16;94359.53;;;1.29;100.00
64141;BME280;50436;50.618;7.932;2024-02-23T05:54:02;94352.69;;;1.28;100.00
64141;BME280;50436;50.618;7.932;2024-02-23T05:56:48;94344.19;;;1.43;100.00
64141;BME280;50436;50.618;7.932;2024-02-23T05:59:35;94321.09;;;1.50;100.00
64141;BME280;50436;50.618;7.932;2024-02-23T06:02:22;94319.97;;;1.46;100.00
64141;BME280;50436;50.618;7.932;2024-02-23T06:05:08;94328.50;;;1.53;100.00
64141;BME280;50436;50.618;7.932;2024-02-23T06:07:53;94327.88;;;1.46;100.00
64141;BME280;50436;50.618;7.932;2024-02-23T06:10:40;94330.34;;;1.53;100.00
64141;BME280;50436;50.618;7.932;2024-02-23T06:13:28;94329.72;;;1.46;100.00
64141;BME280;50436;50.618;7.932;2024-02-23T06:16:14;94327.94;;;1.29;100.00
64141;BME280;50436;50.618;7.932;2024-02-23T06:19:01;94302.94;;;1.15;100.00
64141;BME280;50436;50.618;7.932;2024-02-23T06:21:49;94318.69;;;1.10;100.00
64141;BME280;50436;50.618;7.932;2024-02-23T06:24:35;94318.06;;;1.03;100.00
64141;BME280;50436;50.618;7.932;2024-02-23T06:27:21;94319.16;;;1.07;100.00
64141;BME280;50436;50.618;7.932;2024-02-23T06:30:08;94330.03;;;1.10;100.00
64141;BME280;50436;50.618;7.932;2024-02-23T06:32:53;94319.16;;;1.07;100.00
64141;BME280;50436;50.618;7.932;2024-02-23T06:35:39;94326.75;;;1.03;100.00
64141;BME280;50436;50.618;7.932;2024-02-23T06:38:25;94335.88;;;0.96;100.00
64141;BME280;50436;50.618;7.932;2024-02-23T06:41:11;94342.19;;;0.95;100.00
64141;BME280;50436;50.618;7.932;2024-02-23T06:43:57;94346.81;;;0.88;100.00
64141;BME280;50436;50.618;7.932;2024-02-23T06:46:43;94350.94;;;0.83;100.00
64141;BME280;50436;50.618;7.932;2024-02-23T06:49:30;94361.06;;;1.08;100.00
64141;BME280;50436;50.618;7.932;2024-02-23T06:52:15;94353.97;;;1.26;100.00
64141;BME280;50436;50.618;7.932;2024-02-23T06:55:01;94364.06;;;1.51;100.00
64141;BME280;50436;50.618;7.932;2024-02-23T06:57:47;94365.66;;;1.52;100.00
64141;BME280;50436;50.618;7.932;2024-02-23T07:00:33;94364.94;;;1.56;100.00
64141;BME280;50436;50.618;7.932;2024-02-23T07:03:19;94369.31;;;1.67;100.00
64141;BME280;50436;50.618;7.932;2024-02-23T07:06:05;94359.47;;;1.63;100.00
64141;BME280;50436;50.618;7.932;2024-02-23T07:08:51;94375.53;;;1.61;100.00
64141;BME280;50436;50.618;7.932;2024-02-23T07:11:38;94364.63;;;1.53;100.00
64141;BME280;50436;50.618;7.932;2024-02-23T07:14:24;94381.66;;;1.45;100.00
64141;BME280;50436;50.618;7.932;2024-02-23T07:17:10;94397.22;;;1.47;100.00
64141;BME280;50436;50.618;7.932;2024-02-23T07:19:56;94392.03;;;1.52;100.00
64141;BME280;50436;50.618;7.932;2024-02-23T07:22:50;94392.66;;;1.59;100.00
64141;BME280;50436;50.618;7.932;2024-02-23T07:25:36;94414.78;;;1.58;100.00
64141;BME280;50436;50.618;7.932;2024-02-23T07:28:22;94407.34;;;1.72;100.00
64141;BME280;50436;50.618;7.932;2024-02-23T07:31:10;94403.41;;;1.74;100.00
64141;BME280;50436;50.618;7.932;2024-02-23T07:33:56;94418.91;;;1.87;100.00
64141;BME280;50436;50.618;7.932;2024-02-23T07:36:41;94407.56;;;1.87;100.00
64141;BME280;50436;50.618;7.932;2024-02-23T07:39:28;94422.00;;;1.84;100.00
64141;BME280;50436;50.618;7.932;2024-02-23T07:42:14;94422.56;;;1.86;100.00
64141;BME280;50436;50.618;7.932;2024-02-23T07:45:05;94403.63;;;1.89;100.00
64141;BME280;50436;50.618;7.932;2024-02-23T07:47:52;94405.31;;;1.79;100.00
64141;BME280;50436;50.618;7.932;2024-02-23T07:50:37;94383.63;;;1.93;100.00
64141;BME280;50436;50.618;7.932;2024-02-23T07:53:23;94415.88;;;2.01;100.00
64141;BME280;50436;50.618;7.932;2024-02-23T07:56:09;94419.56;;;2.00;100.00
64141;BME280;50436;50.618;7.932;2024-02-23T07:58:55;94422.22;;;2.00;100.00
64141;BME280;50436;50.618;7.932;2024-02-23T08:01:42;94402.78;;;2.06;100.00
64141;BME280;50436;50.618;7.932;2024-02-23T08:04:27;94409.66;;;2.07;100.00
64141;BME280;50436;50.618;7.932;2024-02-23T08:07:13;94403.31;;;2.08;100.00
64141;BME280;50436;50.618;7.932;2024-02-23T08:10:03;94407.06;;;2.12;100.00
64141;BME280;50436;50.618;7.932;2024-02-23T08:12:50;94427.50;;;2.21;100.00
64141;BME280;50436;50.618;7.932;2024-02-23T08:15:36;94419.03;;;2.19;100.00
64141;BME280;50436;50.618;7.932;2024-02-23T08:18:22;94429.72;;;2.30;100.00
64141;BME280;50436;50.618;7.932;2024-02-23T08:21:10;94427.34;;;2.28;100.00
64141;BME280;50436;50.618;7.932;2024-02-23T08:23:56;94438.06;;;2.43;100.00
64141;BME280;50436;50.618;7.932;2024-02-23T08:26:42;94429.91;;;2.45;100.00
64141;BME280;50436;50.618;7.932;2024-02-23T08:29:28;94448.63;;;2.43;100.00
64141;BME280;50436;50.618;7.932;2024-02-23T08:32:14;94440.63;;;2.38;100.00
64141;BME280;50436;50.618;7.932;2024-02-23T08:35:00;94437.19;;;2.38;100.00
64141;BME280;50436;50.618;7.932;2024-02-23T08:37:46;94442.81;;;2.41;100.00
64141;BME280;50436;50.618;7.932;2024-02-23T08:40:31;94433.63;;;2.49;100.00
64141;BME280;50436;50.618;7.932;2024-02-23T08:43:17;94433.75;;;2.59;100.00
64141;BME280;50436;50.618;7.932;2024-02-23T08:46:04;94434.63;;;2.65;100.00
64141;BME280;50436;50.618;7.932;2024-02-23T08:48:50;94445.75;;;2.72;100.00
64141;BME280;50436;50.618;7.932;2024-02-23T08:51:36;94458.97;;;2.72;100.00
64141;BME280;50436;50.618;7.932;2024-02-23T08:54:22;94459.78;;;2.72;100.00
64141;BME280;50436;50.618;7.932;2024-02-23T08:57:07;94454.28;;;2.79;100.00
64141;BME280;50436;50.618;7.932;2024-02-23T08:59:53;94455.97;;;2.63;100.00
64141;BME280;50436;50.618;7.932;2024-02-23T09:02:40;94463.53;;;2.55;100.00
64141;BME280;50436;50.618;7.932;2024-02-23T09:05:27;94465.88;;;2.51;100.00
64141;BME280;50436;50.618;7.932;2024-02-23T09:08:13;94464.06;;;2.57;100.00
64141;BME280;50436;50.618;7.932;2024-02-23T09:10:59;94464.06;;;2.57;100.00
64141;BME280;50436;50.618;7.932;2024-02-23T09:13:45;94460.78;;;2.66;100.00
64141;BME280;50436;50.618;7.932;2024-02-23T09:16:34;94463.06;;;2.58;100.00
64141;BME280;50436;50.618;7.932;2024-02-23T09:19:19;94456.31;;;2.72;100.00
64141;BME280;50436;50.618;7.932;2024-02-23T09:22:06;94451.19;;;2.82;100.00
64141;BME280;50436;50.618;7.932;2024-02-23T09:24:52;94460.81;;;2.71;100.00
64141;BME280;50436;50.618;7.932;2024-02-23T09:27:37;94450.84;;;2.78;100.00
64141;BME280;50436;50.618;7.932;2024-02-23T09:30:28;94454.16;;;2.91;100.00
64141;BME280;50436;50.618;7.932;2024-02-23T09:33:14;94446.38;;;3.06;100.00
64141;BME280;50436;50.618;7.932;2024-02-23T09:36:00;94447.56;;;2.93;100.00
64141;BME280;50436;50.618;7.932;2024-02-23T09:38:47;94452.75;;;3.10;100.00
64141;BME280;50436;50.618;7.932;2024-02-23T09:41:34;94457.53;;;3.40;100.00
64141;BME280;50436;50.618;7.932;2024-02-23T09:44:21;94466.81;;;3.43;100.00
64141;BME280;50436;50.618;7.932;2024-02-23T09:47:08;94473.81;;;3.27;100.00
64141;BME280;50436;50.618;7.932;2024-02-23T09:49:55;94457.25;;;3.37;100.00
64141;BME280;50436;50.618;7.932;2024-02-23T09:52:41;94455.53;;;3.25;100.00
64141;BME280;50436;50.618;7.932;2024-02-23T09:55:29;94469.53;;;3.21;100.00
64141;BME280;50436;50.618;7.932;2024-02-23T09:58:15;94473.09;;;3.37;100.00
64141;BME280;50436;50.618;7.932;2024-02-23T10:01:03;94462.06;;;3.18;100.00
64141;BME280;50436;50.618;7.932;2024-02-23T10:03:49;94461.00;;;3.14;100.00
64141;BME280;50436;50.618;7.932;2024-02-23T10:06:35;94471.41;;;3.25;100.00
64141;BME280;50436;50.618;7.932;2024-02-23T10:09:21;94468.75;;;3.25;100.00
64141;BME280;50436;50.618;7.932;2024-02-23T10:12:07;94477.59;;;3.36;100.00
64141;BME280;50436;50.618;7.932;2024-02-23T10:14:53;94465.81;;;3.22;100.00
64141;BME280;50436;50.618;7.932;2024-02-23T10:17:39;94465.75;;;3.12;100.00
64141;BME280;50436;50.618;7.932;2024-02-23T10:20:26;94472.78;;;3.33;100.00
64141;BME280;50436;50.618;7.932;2024-02-23T10:23:12;94471.28;;;3.42;100.00
64141;BME280;50436;50.618;7.932;2024-02-23T10:25:58;94467.88;;;3.47;100.00
64141;BME280;50436;50.618;7.932;2024-02-23T10:28:45;94468.38;;;3.76;100.00
64141;BME280;50436;50.618;7.932;2024-02-23T10:31:35;94457.34;;;3.89;100.00
64141;BME280;50436;50.618;7.932;2024-02-23T10:34:24;94469.13;;;4.08;100.00
64141;BME280;50436;50.618;7.932;2024-02-23T10:37:10;94463.31;;;4.11;100.00
64141;BME280;50436;50.618;7.932;2024-02-23T10:39:57;94474.56;;;4.34;100.00
64141;BME280;50436;50.618;7.932;2024-02-23T10:42:45;94467.03;;;4.68;100.00
64141;BME280;50436;50.618;7.932;2024-02-23T10:45:34;94461.34;;;5.52;100.00
64141;BME280;50436;50.618;7.932;2024-02-23T10:48:22;94472.03;;;4.64;100.00
64141;BME280;50436;50.618;7.932;2024-02-23T10:51:10;94465.19;;;4.68;100.00
64141;BME280;50436;50.618;7.932;2024-02-23T10:53:57;94463.94;;;4.91;100.00
64141;BME280;50436;50.618;7.932;2024-02-23T10:56:46;94462.88;;;4.92;100.00
64141;BME280;50436;50.618;7.932;2024-02-23T10:59:32;94452.59;;;5.87;100.00
64141;BME280;50436;50.618;7.932;2024-02-23T11:02:20;94452.94;;;7.65;100.00
64141;BME280;50436;50.618;7.932;2024-02-23T11:05:08;94448.34;;;6.12;100.00
64141;BME280;50436;50.618;7.932;2024-02-23T11:07:58;94464.59;;;6.85;100.00
64141;BME280;50436;50.618;7.932;2024-02-23T11:10:51;94457.94;;;5.77;100.00
64141;BME280;50436;50.618;7.932;2024-02-23T11:13:40;94471.19;;;6.13;100.00
64141;BME280;50436;50.618;7.932;2024-02-23T11:16:31;94454.50;;;6.82;100.00
64141;BME280;50436;50.618;7.932;2024-02-23T11:19:17;94455.63;;;7.60;100.00
64141;BME280;50436;50.618;7.932;2024-02-23T11:22:04;94460.59;;;6.08;100.00
64141;BME280;50436;50.618;7.932;2024-02-23T11:24:50;94462.97;;;5.79;100.00
64141;BME280;50436;50.618;7.932;2024-02-23T11:27:37;94458.16;;;5.15;100.00
64141;BME280;50436;50.618;7.932;2024-02-23T11:30:26;94474.72;;;4.74;100.00
64141;BME280;50436;50.618;7.932;2024-02-23T11:33:12;94475.16;;;4.51;100.00
64141;BME280;50436;50.618;7.932;2024-02-23T11:36:08;94475.22;;;4.66;100.00
64141;BME280;50436;50.618;7.932;2024-02-23T11:38:58;94472.28;;;4.58;100.00
64141;BME280;50436;50.618;7.932;2024-02-23T11:41:44;94467.09;;;4.88;100.00
64141;BME280;50436;50.618;7.932;2024-02-23T11:44:33;94467.63;;;7.13;100.00
64141;BME280;50436;50.618;7.932;2024-02-23T11:47:19;94448.38;;;9.38;100.00
64141;BME280;50436;50.618;7.932;2024-02-23T11:50:09;94434.44;;;12.02;93.41
64141;BME280;50436;50.618;7.932;2024-02-23T11:52:57;94453.41;;;9.58;99.89
64141;BME280;50436;50.618;7.932;2024-02-23T11:55:43;94433.84;;;11.47;93.54
64141;BME280;50436;50.618;7.932;2024-02-23T11:58:28;94421.59;;;12.92;72.80
64141;BME280;50436;50.618;7.932;2024-02-23T12:01:14;94424.50;;;12.65;67.25
64141;BME280;50436;50.618;7.932;2024-02-23T12:04:00;94422.44;;;15.58;51.97
64141;BME280;50436;50.618;7.932;2024-02-23T12:06:46;94429.22;;;10.01;84.30
64141;BME280;50436;50.618;7.932;2024-02-23T12:09:32;94435.75;;;9.06;96.08
64141;BME280;50436;50.618;7.932;2024-02-23T12:12:18;94423.03;;;11.02;90.72
64141;BME280;50436;50.618;7.932;2024-02-23T12:15:05;94424.53;;;13.74;62.95
64141;BME280;50436;50.618;7.932;2024-02-23T12:17:51;94416.31;;;14.98;57.87
64141;BME280;50436;50.618;7.932;2024-02-23T12:20:37;94424.13;;;11.14;80.75
64141;BME280;50436;50.618;7.932;2024-02-23T12:23:23;94424.59;;;10.07;91.35
64141;BME280;50436;50.618;7.932;2024-02-23T12:26:17;94428.38;;;9.16;97.90
64141;BME280;50436;50.618;7.932;2024-02-23T12:29:04;94429.22;;;7.97;100.00
64141;BME280;50436;50.618;7.932;2024-02-23T12:31:50;94429.00;;;7.25;100.00
64141;BME280;50436;50.618;7.932;2024-02-23T12:34:37;94437.22;;;6.85;100.00
64141;BME280;50436;50.618;7.932;2024-02-23T12:37:22;94446.16;;;6.29;100.00
64141;BME280;50436;50.618;7.932;2024-02-23T12:40:09;94439.09;;;5.94;100.00
64141;BME280;50436;50.618;7.932;2024-02-23T12:42:55;94453.16;;;5.95;100.00
64141;BME280;50436;50.618;7.932;2024-02-23T12:45:41;94456.81;;;6.14;100.00
64141;BME280;50436;50.618;7.932;2024-02-23T12:48:27;94450.22;;;6.86;100.00
64141;BME280;50436;50.618;7.932;2024-02-23T12:51:12;94459.34;;;6.60;100.00
64141;BME280;50436;50.618;7.932;2024-02-23T12:53:59;94467.19;;;6.10;100.00
64141;BME280;50436;50.618;7.932;2024-02-23T12:56:46;94478.13;;;5.94;100.00
64141;BME280;50436;50.618;7.932;2024-02-23T12:59:31;94470.91;;;5.74;100.00
64141;BME280;50436;50.618;7.932;2024-02-23T13:02:20;94465.06;;;5.67;100.00
64141;BME280;50436;50.618;7.932;2024-02-23T13:05:06;94509.84;;;5.07;100.00
64141;BME280;50436;50.618;7.932;2024-02-23T13:07:52;94474.84;;;8.73;100.00
64141;BME280;50436;50.618;7.932;2024-02-23T13:10:38;94481.41;;;7.25;100.00
64141;BME280;50436;50.618;7.932;2024-02-23T13:13:24;94469.47;;;7.17;100.00
64141;BME280;50436;50.618;7.932;2024-02-23T13:16:10;94474.34;;;6.20;100.00
64141;BME280;50436;50.618;7.932;2024-02-23T13:18:56;94471.44;;;5.81;100.00
64141;BME280;50436;50.618;7.932;2024-02-23T13:21:42;94469.78;;;6.46;100.00
64141;BME280;50436;50.618;7.932;2024-02-23T13:24:27;94457.91;;;7.37;100.00
64141;BME280;50436;50.618;7.932;2024-02-23T13:27:13;94457.88;;;9.82;100.00
64141;BME280;50436;50.618;7.932;2024-02-23T13:29:59;94457.31;;;8.43;100.00
64141;BME280;50436;50.618;7.932;2024-02-23T13:32:45;94450.13;;;10.59;98.78
64141;BME280;50436;50.618;7.932;2024-02-23T13:35:31;94433.66;;;10.38;93.09
64141;BME280;50436;50.618;7.932;2024-02-23T13:38:17;94441.78;;;10.47;94.27
64141;BME280;50436;50.618;7.932;2024-02-23T13:41:03;94428.41;;;13.07;79.83
64141;BME280;50436;50.618;7.932;2024-02-23T13:43:49;94419.16;;;14.93;71.44
64141;BME280;50436;50.618;7.932;2024-02-23T13:46:38;94420.94;;;15.69;56.63
64141;BME280;50436;50.618;7.932;2024-02-23T13:49:24;94419.88;;;15.11;55.25
64141;BME280;50436;50.618;7.932;2024-02-23T13:52:10;94438.31;;;10.32;81.20
64141;BME280;50436;50.618;7.932;2024-02-23T13:54:56;94436.41;;;9.35;98.28
64141;BME280;50436;50.618;7.932;2024-02-23T13:57:42;94439.06;;;9.16;99.20
64141;BME280;50436;50.618;7.932;2024-02-23T14:00:27;94442.84;;;8.73;100.00
64141;BME280;50436;50.618;7.932;2024-02-23T14:03:17;94456.66;;;7.64;100.00
64141;BME280;50436;50.618;7.932;2024-02-23T14:06:03;94460.78;;;7.02;100.00
64141;BME280;50436;50.618;7.932;2024-02-23T14:08:49;94454.03;;;6.60;100.00
64141;BME280;50436;50.618;7.932;2024-02-23T14:11:35;94462.44;;;6.02;100.00
64141;BME280;50436;50.618;7.932;2024-02-23T14:14:24;94464.81;;;6.04;100.00
64141;BME280;50436;50.618;7.932;2024-02-23T14:17:10;94488.72;;;5.53;100.00
64141;BME280;50436;50.618;7.932;2024-02-23T14:19:56;94497.25;;;4.72;100.00
64141;BME280;50436;50.618;7.932;2024-02-23T14:22:42;94508.19;;;4.96;100.00
64141;BME280;50436;50.618;7.932;2024-02-23T14:25:27;94502.91;;;4.96;100.00
64141;BME280;50436;50.618;7.932;2024-02-23T14:28:13;94482.84;;;6.32;100.00
64141;BME280;50436;50.618;7.932;2024-02-23T14:30:59;94469.34;;;9.26;100.00
64141;BME280;50436;50.618;7.932;2024-02-23T14:33:45;94475.41;;;10.67;100.00
64141;BME280;50436;50.618;7.932;2024-02-23T14:36:31;94460.91;;;12.26;100.00
64141;BME280;50436;50.618;7.932;2024-02-23T14:39:20;94461.06;;;11.26;100.00
64141;BME280;50436;50.618;7.932;2024-02-23T14:42:09;94465.78;;;8.92;100.00